Time;durP1;ratioP1;P1;durP2;ratioP2;P2;SDS_P1;SDS_P2;PMS_P1;PMS_P2;Temp;Humidity;BMP_temperature;BMP_pressure;BME280_temperature;BME280_humidity;BME280_pressure;Samples;Min_cycle;Max_cycle;Signal;HPM_P1;HPM_P2
2023/05/04 00:13:25;;;;;;;43.60;21.30;;;;;;;3.85;67.92;99505.61;435547;1251;108975;-42
2023/05/04 00:23:29;;;;;;;34.50;21.30;;;;;;;3.85;68.28;99502.41;435463;1253;97898;-42
2023/05/04 00:33:32;;;;;;;45.50;24.00;;;;;;;3.90;68.56;99495.10;435501;1252;108126;-41
2023/05/04 00:43:36;;;;;;;39.70;20.70;;;;;;;3.77;68.75;99492.30;435417;1254;97866;-44
2023/05/04 00:53:42;;;;;;;37.00;20.60;;;;;;;3.71;69.05;99491.22;435580;1254;110513;-42
2023/05/04 01:03:45;;;;;;;31.80;17.70;;;;;;;3.51;69.00;99491.73;435584;1254;97480;-41
2023/05/04 01:13:52;;;;;;;18.10;11.90;;;;;;;3.36;69.16;99484.46;437633;1248;97855;-41
2023/05/04 01:23:55;;;;;;;19.20;11.10;;;;;;;3.33;69.17;99484.30;437958;1250;111129;-42
2023/05/04 01:34:00;;;;;;;20.70;12.20;;;;;;;3.34;69.50;99482.48;438073;1258;107447;-42
2023/05/04 01:44:08;;;;;;;27.40;16.10;;;;;;;3.36;69.59;99479.46;437973;1250;97462;-42
2023/05/04 01:54:12;;;;;;;27.00;16.10;;;;;;;3.23;69.85;99477.55;438034;1251;109387;-42
2023/05/04 02:04:16;;;;;;;28.20;17.20;;;;;;;3.05;69.90;99476.09;438003;1250;97871;-41
2023/05/04 02:14:24;;;;;;;23.80;13.00;;;;;;;2.88;70.00;99481.73;437990;1259;96553;-42
2023/05/04 02:24:27;;;;;;;21.20;12.80;;;;;;;2.76;70.12;99479.12;438097;1246;109462;-42
2023/05/04 02:34:31;;;;;;;20.00;12.60;;;;;;;2.76;70.17;99473.43;437781;1248;108118;-42
2023/05/04 02:44:34;;;;;;;36.60;21.50;;;;;;;2.75;70.22;99472.84;437976;1251;98508;-42
2023/05/04 02:54:38;;;;;;;33.20;19.70;;;;;;;2.60;70.65;99474.59;438170;1250;97887;-43
2023/05/04 03:04:42;;;;;;;34.70;18.90;;;;;;;2.42;70.57;99477.46;437922;1250;107497;-41
2023/05/04 03:14:46;;;;;;;23.80;16.00;;;;;;;2.26;70.64;99482.73;437964;1250;96923;-41
2023/05/04 03:24:50;;;;;;;22.20;14.40;;;;;;;2.19;70.60;99481.86;437878;1247;108103;-42
2023/05/04 03:34:53;;;;;;;24.60;15.40;;;;;;;2.32;70.83;99476.70;438062;1251;97479;-42
2023/05/04 03:44:57;;;;;;;39.00;23.00;;;;;;;2.50;71.03;99474.65;437802;1250;429694;-45
2023/05/04 03:55:06;;;;;;;43.80;26.00;;;;;;;3.02;71.43;99475.02;438036;1250;98490;-41
2023/05/04 04:05:09;;;;;;;34.00;23.30;;;;;;;5.32;70.72;99477.52;438024;1248;97871;-41
2023/05/04 04:15:13;;;;;;;35.00;26.10;;;;;;;7.59;68.94;99475.69;437960;1250;97611;-42
2023/05/04 04:25:17;;;;;;;48.00;30.20;;;;;;;9.30;67.30;99479.12;437992;1248;107069;-41
2023/05/04 04:45:28;;;;;;;36.30;21.10;;;;;;;11.95;64.90;99479.95;438162;1246;111764;-43
2023/05/04 04:55:36;;;;;;;32.60;19.80;;;;;;;13.04;63.79;99479.83;438149;1248;108664;-42
2023/05/04 05:05:42;;;;;;;30.50;18.30;;;;;;;13.76;62.72;99481.20;438020;1250;96622;-43
2023/05/04 05:15:47;;;;;;;25.70;16.90;;;;;;;14.11;61.55;99485.90;438092;1248;110898;-43
2023/05/04 05:35:54;;;;;;;25.60;17.20;;;;;;;13.87;59.86;99501.19;438147;1247;97466;-41
2023/05/04 05:45:59;;;;;;;21.60;14.40;;;;;;;14.27;59.03;99494.65;438111;1247;109930;-41
2023/05/04 05:56:06;;;;;;;23.30;13.40;;;;;;;14.65;58.51;99488.77;438179;1246;107629;-42
2023/05/04 06:06:11;;;;;;;20.30;13.00;;;;;;;15.04;57.00;99482.59;437931;1246;96667;-41
2023/05/04 06:16:14;;;;;;;20.10;12.80;;;;;;;15.56;56.69;99477.34;438040;1247;110898;-42
2023/05/04 06:36:25;;;;;;;17.20;8.70;;;;;;;15.79;54.23;99480.24;438105;1248;97931;-41
2023/05/04 06:46:35;;;;;;;12.90;7.70;;;;;;;16.07;52.96;99476.91;437957;1248;109993;-43
2023/05/04 06:56:40;;;;;;;8.40;5.10;;;;;;;16.00;50.28;99477.78;438043;1249;108496;-43
2023/05/04 07:06:44;;;;;;;7.80;4.90;;;;;;;15.38;48.47;99478.46;438066;1251;98199;-42
2023/05/04 07:16:48;;;;;;;6.10;4.20;;;;;;;15.57;46.92;99481.74;437924;1251;97453;-41
2023/05/04 07:26:51;;;;;;;4.90;2.70;;;;;;;15.04;45.21;99482.77;437940;1247;108842;-42
2023/05/04 07:36:55;;;;;;;5.50;3.20;;;;;;;15.05;43.20;99482.98;437871;1250;96645;-43
2023/05/04 07:46:59;;;;;;;5.90;3.20;;;;;;;15.15;43.38;99480.23;438216;1247;98012;-43
2023/05/04 07:57:03;;;;;;;6.40;3.40;;;;;;;15.74;42.79;99479.95;437995;1244;109047;-42
2023/05/04 08:07:06;;;;;;;4.00;3.10;;;;;;;15.63;41.57;99471.35;438182;1248;97864;-43
2023/05/04 08:17:10;;;;;;;6.40;3.90;;;;;;;15.73;41.26;99478.66;438043;1250;108380;-45
2023/05/04 08:27:14;;;;;;;5.10;3.40;;;;;;;15.21;40.78;99475.93;437933;1247;97864;-43
2023/05/04 08:37:20;;;;;;;8.20;3.80;;;;;;;15.29;40.87;99473.64;438004;1244;110044;-43
2023/05/04 08:47:24;;;;;;;5.30;3.40;;;;;;;16.05;41.49;99469.28;438043;1250;107626;-43
2023/05/04 08:57:29;;;;;;;4.60;3.70;;;;;;;16.36;41.45;99472.55;437910;1248;97890;-43
2023/05/04 09:07:33;;;;;;;6.40;2.80;;;;;;;16.77;41.02;99469.10;438135;1250;98368;-42
2023/05/04 09:17:36;;;;;;;5.10;3.80;;;;;;;17.05;40.93;99465.40;438007;1251;107746;-41
2023/05/04 09:27:54;;;;;;;6.00;4.40;;;;;;;16.41;39.73;99463.27;438284;1251;97862;-42
2023/05/04 09:37:58;;;;;;;4.50;3.30;;;;;;;16.34;40.12;99456.45;438020;1250;107251;-43
2023/05/04 09:48:02;;;;;;;5.30;2.80;;;;;;;16.57;39.81;99445.66;437981;1246;96623;-43
2023/05/04 09:58:06;;;;;;;6.70;3.60;;;;;;;16.25;38.93;99437.02;438097;1250;110123;-42
2023/05/04 10:08:12;;;;;;;5.80;3.00;;;;;;;16.20;39.08;99429.16;437867;1246;97890;-41
2023/05/04 10:19:00;;;;;;;4.70;4.00;;;;;;;16.08;37.99;99423.77;438540;1247;97467;-43
2023/05/04 10:29:10;;;;;;;5.60;3.60;;;;;;;16.11;39.28;99410.30;437606;1247;110753;-40
2023/05/04 10:39:21;;;;;;;6.30;3.20;;;;;;;16.38;39.01;99393.36;438107;1247;106179;-42
2023/05/04 10:49:24;;;;;;;5.00;3.30;;;;;;;16.93;39.94;99381.44;437427;1249;97868;-42
2023/05/04 10:59:28;;;;;;;4.70;3.10;;;;;;;16.79;39.26;99382.05;437281;1251;110372;-42
2023/05/04 11:09:34;;;;;;;4.80;3.00;;;;;;;16.60;39.11;99369.54;437009;1251;107672;-42
2023/05/04 11:19:48;;;;;;;5.80;2.50;;;;;;;16.72;39.27;99363.77;437187;1251;97881;-42
2023/05/04 11:29:59;;;;;;;4.20;2.50;;;;;;;16.44;38.49;99363.02;437050;1247;110684;-42
2023/05/04 11:40:09;;;;;;;4.70;3.20;;;;;;;16.66;38.31;99352.73;437134;1247;107196;-42
2023/05/04 11:50:13;;;;;;;2.90;2.50;;;;;;;17.04;38.54;99338.05;437025;1247;97868;-42
2023/05/04 12:00:21;;;;;;;3.30;2.10;;;;;;;17.10;38.52;99334.68;437165;1247;109743;-41
2023/05/04 12:10:27;;;;;;;6.70;2.50;;;;;;;17.16;38.79;99319.82;436907;1251;106614;-41
2023/05/04 12:20:31;;;;;;;2.80;2.50;;;;;;;16.95;37.81;99313.83;437053;1247;97867;-41
2023/05/04 12:30:35;;;;;;;3.60;2.30;;;;;;;16.91;37.57;99303.41;437215;1247;110219;-42
2023/05/04 12:40:39;;;;;;;3.10;2.60;;;;;;;16.84;37.33;99295.98;437201;1248;97127;-43
2023/05/04 13:00:47;;;;;;;2.60;2.20;;;;;;;17.05;37.81;99263.73;437175;1247;110284;-42
2023/05/04 13:10:51;;;;;;;6.80;2.90;;;;;;;16.93;37.43;99260.91;437119;1248;107521;-44
2023/05/04 13:20:57;;;;;;;5.70;2.80;;;;;;;16.93;37.63;99250.39;437162;1251;96661;-42
2023/05/04 13:31:01;;;;;;;3.40;1.90;;;;;;;17.19;38.09;99245.22;437254;1247;109530;-41
2023/05/04 13:41:06;;;;;;;4.10;2.20;;;;;;;17.29;37.52;99230.65;437175;1248;107935;-42
2023/05/04 13:51:10;;;;;;;5.50;2.40;;;;;;;17.31;37.98;99222.95;437314;1251;98275;-43
2023/05/04 14:01:14;;;;;;;10.60;2.30;;;;;;;17.32;37.19;99207.73;437079;1251;96592;-42
2023/05/04 14:11:19;;;;;;;2.40;2.20;;;;;;;17.22;37.02;99199.87;437147;1247;107421;-42
2023/05/04 14:21:23;;;;;;;3.50;2.50;;;;;;;17.22;37.59;99196.66;437187;1247;97865;-42
2023/05/04 14:31:26;;;;;;;4.30;2.10;;;;;;;17.35;37.27;99194.75;437200;1248;108572;-42
2023/05/04 14:51:36;;;;;;;3.40;2.40;;;;;;;17.26;37.06;99176.20;437404;1247;109859;-42
2023/05/04 15:01:40;;;;;;;2.60;2.20;;;;;;;17.11;36.50;99169.29;437192;1247;107981;-42
2023/05/04 15:11:45;;;;;;;5.80;2.00;;;;;;;17.09;36.82;99159.83;437229;1251;97879;-43
2023/05/04 15:33:51;;;;;;;4.20;2.10;;;;;;;17.17;36.81;99149.27;437354;1247;109045;-43
2023/05/04 15:53:59;;;;;;;2.60;2.20;;;;;;;16.97;37.03;99136.83;437214;1248;98804;-42
2023/05/04 16:04:03;;;;;;;4.30;2.40;;;;;;;16.87;37.24;99131.65;437262;1247;107980;-43
2023/05/04 16:14:07;;;;;;;2.80;1.70;;;;;;;16.73;36.75;99124.77;437334;1252;99256;-44
2023/05/04 16:24:12;;;;;;;3.50;2.60;;;;;;;16.65;37.10;99125.23;437479;1248;107338;-43
2023/05/04 16:34:16;;;;;;;3.40;2.30;;;;;;;16.53;37.43;99116.52;437280;1248;97974;-46
2023/05/04 16:44:20;;;;;;;2.70;1.90;;;;;;;16.45;37.44;99111.41;437322;1248;111810;-42
2023/05/04 16:54:23;;;;;;;3.00;1.90;;;;;;;16.25;37.37;99117.08;437379;1247;108445;-43
2023/05/04 17:04:29;;;;;;;7.00;2.50;;;;;;;16.03;37.81;99128.77;437385;1248;97948;-43
2023/05/04 17:24:37;;;;;;;2.90;2.30;;;;;;;15.59;38.58;99125.65;437420;1261;99385;-42
2023/05/04 17:34:40;;;;;;;3.10;2.50;;;;;;;15.35;38.89;99121.26;437358;1253;112869;-41
2023/05/04 17:44:44;;;;;;;4.80;3.00;;;;;;;15.06;39.41;99125.30;437369;1252;107103;-42
2023/05/04 17:54:48;;;;;;;5.50;3.00;;;;;;;14.73;40.01;99127.63;437510;1250;99892;-43
2023/05/04 18:04:52;;;;;;;5.70;3.30;;;;;;;14.39;40.89;99136.41;437269;1252;107513;-44
2023/05/04 18:14:56;;;;;;;14.50;4.70;;;;;;;14.00;41.73;99154.61;437363;1254;99208;-42
2023/05/04 18:25:00;;;;;;;9.70;5.30;;;;;;;13.57;42.18;99164.65;438067;1247;112280;-43
2023/05/04 18:35:03;;;;;;;18.10;9.50;;;;;;;13.12;43.09;99170.66;437294;1253;107227;-42
2023/05/04 18:45:10;;;;;;;16.70;8.80;;;;;;;12.85;44.06;99165.34;437516;1248;97932;-44
2023/05/04 18:55:13;;;;;;;24.40;9.80;;;;;;;12.68;44.52;99166.48;437286;1253;107613;-43
2023/05/04 19:05:21;;;;;;;14.10;8.00;;;;;;;12.43;45.44;99168.54;437290;1252;99230;-42
2023/05/04 19:15:25;;;;;;;21.70;9.50;;;;;;;12.19;45.97;99174.40;437338;1254;111546;-44
2023/05/04 19:25:29;;;;;;;20.40;9.90;;;;;;;12.00;46.89;99183.14;437344;1251;107191;-42
2023/05/04 19:35:38;;;;;;;22.80;9.80;;;;;;;11.79;47.89;99183.63;437503;1253;99686;-43
2023/05/04 19:45:48;;;;;;;22.10;8.60;;;;;;;11.56;48.79;99174.44;437436;1254;107277;-41
2023/05/04 19:55:51;;;;;;;17.60;7.70;;;;;;;11.38;49.38;99170.18;437354;1248;99227;-42
2023/05/04 20:05:55;;;;;;;15.60;8.00;;;;;;;11.24;49.81;99168.34;437476;1248;110583;-43
2023/05/04 20:26:02;;;;;;;15.40;8.30;;;;;;;10.94;50.66;99165.88;437394;1254;99295;-42
2023/05/04 20:36:11;;;;;;;18.50;9.90;;;;;;;10.83;51.20;99161.66;437411;1261;106562;-42
2023/05/04 20:46:15;;;;;;;17.80;8.90;;;;;;;10.70;51.77;99163.14;437378;1253;99215;-43
2023/05/04 20:56:19;;;;;;;13.80;7.50;;;;;;;10.52;52.12;99161.02;437414;1254;112948;-42
2023/05/04 21:06:26;;;;;;;19.90;11.10;;;;;;;10.36;52.58;99154.38;437268;1251;109225;-44
2023/05/04 21:16:39;;;;;;;23.20;10.90;;;;;;;10.23;53.08;99149.44;437407;1252;97936;-42
2023/05/04 21:26:43;;;;;;;15.80;9.40;;;;;;;10.10;53.45;99145.66;437398;1253;106885;-42
2023/05/04 21:36:47;;;;;;;16.30;10.70;;;;;;;9.95;53.77;99137.93;437481;1261;99279;-40
2023/05/04 21:46:51;;;;;;;22.80;11.80;;;;;;;9.93;54.31;99132.25;437368;1261;112104;-42
2023/05/04 21:56:55;;;;;;;28.00;11.80;;;;;;;10.06;54.19;99137.09;437270;1261;106940;-42
2023/05/04 22:07:02;;;;;;;24.00;12.00;;;;;;;10.10;54.64;99146.73;437355;1247;99227;-41
2023/05/04 22:27:10;;;;;;;23.00;13.20;;;;;;;10.35;54.64;99123.89;437382;1253;99250;-40
2023/05/04 22:37:16;;;;;;;20.50;12.10;;;;;;;10.59;54.39;99134.05;437473;1251;110896;-42
2023/05/04 22:47:21;;;;;;;26.10;12.70;;;;;;;10.62;54.03;99131.08;437413;1251;108528;-43
2023/05/04 22:57:24;;;;;;;30.40;14.90;;;;;;;10.52;54.02;99135.27;437271;1248;98096;-42
2023/05/04 23:07:28;;;;;;;24.30;13.80;;;;;;;10.45;54.12;99129.71;437346;1251;108624;-41
2023/05/04 23:27:36;;;;;;;29.00;16.80;;;;;;;10.24;54.61;99116.75;437381;1251;111262;-41
2023/05/04 23:37:40;;;;;;;26.60;16.20;;;;;;;10.12;54.88;99109.69;437410;1250;108312;-42
2023/05/04 23:47:44;;;;;;;35.40;18.40;;;;;;;9.90;55.32;99114.67;437432;1251;99237;-41
2023/05/04 23:57:51;;;;;;;27.60;16.60;;;;;;;9.66;56.02;99114.57;437502;1247;107418;-43
